This is the latest recevied weather packets stored in our database for station/object WZ9ZZZ-1. If no packets are shown the sender has not sent any weather packets the latest 1 day(s).
| Time | Temp. | Humidity | Pressure | Rain* | Wind** | Luminosity | Snow |
|---|---|---|---|---|---|---|---|
| 1778025534 | 26.11° C | 85% | 1011.2 hPa | 0 mm | 1.34 m/s, 239° | 32 W/m² | - |
| 1778025232 | 26.11° C | 85% | 1011.5 hPa | 0 mm | 1.34 m/s, 133° | 36 W/m² | - |
| 1778024928 | 26.11° C | 85% | 1011.1 hPa | 0 mm | 3.58 m/s, 258° | 34 W/m² | - |
| 1778024626 | 26.11° C | 85% | 1011.3 hPa | 0 mm | 0.45 m/s, 174° | 31 W/m² | - |
| 1778024323 | 26.11° C | 85% | 1011.2 hPa | 0 mm | 2.68 m/s, 235° | 32 W/m² | - |
| 1778024021 | 26.67° C | 85% | 1011.1 hPa | 0 mm | 2.68 m/s, 236° | 29 W/m² | - |
| 1778023718 | 26.67° C | 84% | 1011.4 hPa | 0 mm | 0.89 m/s, 117° | 53 W/m² | - |
| 1778023416 | 26.67° C | 84% | 1011.6 hPa | 0 mm | 1.79 m/s, 249° | 49 W/m² | - |
| 1778023112 | 26.67° C | 83% | 1011.3 hPa | 0 mm | 2.24 m/s, 240° | 52 W/m² | - |
| 1778022810 | 26.67° C | 83% | 1011.3 hPa | 0 mm | 1.79 m/s, 203° | 45 W/m² | - |
| 1778022508 | 26.67° C | 82% | 1011.5 hPa | 0 mm | 1.34 m/s, 244° | 50 W/m² | - |
| 1778022205 | 26.67° C | 82% | 1011.3 hPa | 0 mm | 2.24 m/s, 285° | 62 W/m² | - |
| 1778021901 | 26.67° C | 82% | 1011.2 hPa | 0 mm | 2.24 m/s, 241° | 98 W/m² | - |
| 1778021599 | 27.22° C | 82% | 1011.2 hPa | 0 mm | 1.34 m/s, 195° | 95 W/m² | - |
| 1778021293 | 26.67° C | 82% | 1011.3 hPa | 0 mm | 3.13 m/s, 215° | 118 W/m² | - |
| 1778020992 | 26.67° C | 82% | 1011.2 hPa | 0 mm | 2.24 m/s, 208° | 104 W/m² | - |
| 1778020688 | 26.67° C | 81% | 1011.4 hPa | 0 mm | 3.13 m/s, 226° | 99 W/m² | - |
| 1778020386 | 26.67° C | 82% | 1011.4 hPa | 0 mm | 0.89 m/s, 244° | 114 W/m² | - |
| 1778020081 | 26.67° C | 82% | 1011.4 hPa | 0 mm | 2.24 m/s, 271° | 141 W/m² | - |
| 1778019777 | 26.67° C | 83% | 1011.4 hPa | 0 mm | 2.24 m/s, 202° | 136 W/m² | - |
| 1778019475 | 26.67° C | 83% | 1011.4 hPa | 0 mm | 2.24 m/s, 215° | 157 W/m² | - |
| 1778019171 | 26.67° C | 83% | 1011.6 hPa | 0 mm | 1.79 m/s, 161° | 148 W/m² | - |
| 1778018868 | 26.67° C | 83% | 1011.4 hPa | 0 mm | 2.24 m/s, 251° | 157 W/m² | - |
| 1778018565 | 26.67° C | 83% | 1011.6 hPa | 0 mm | 2.24 m/s, 228° | 142 W/m² | - |
| 1778018264 | 26.67° C | 83% | 1011.7 hPa | 0 mm | 1.79 m/s, 216° | 114 W/m² | - |
* Rain latest hour (hover to see other rain measurements)
** Current wind speed in m/s (hover to see current wind gust speed)